Terminal Aerodrome Forecast
Issued by NWS

Home | Current Version | Previous Version | Text Only | Print | Product List | Glossary On
Versions: 1 2 3 4 5 6 7 8 9 10 11 12 13 14 15 16 17
000
FTUS43 KSGF 040500 RRA
TAFJLN
TAF
KJLN 040537Z 0406/0506 01012KT 4SM -RADZ OVC010
     FM040900 01012KT 2SM -FZRAPL BR OVC005
     FM041200 02013KT 1 1/2SM -SN OVC006
      TEMPO 0412/0416 3/4SM -SN BR OVC004
     FM041900 02012KT 3SM -SN BR OVC015
     FM042100 02012KT P6SM OVC040
     FM050000 03009KT P6SM OVC080=

USA.gov is the U.S. government's official web portal to all federal, state and local government web resources and services.